sensor_id;sensor_type;location;lat;lon;timestamp;pressure;altitude;pressure_sealevel;temperature;humidity
45253;BME280;63171;50.520;30.486;2023-03-15T00:00:21;99327.28;;;5.75;54.18
45253;BME280;63171;50.520;30.486;2023-03-15T00:01:15;99345.59;;;5.72;54.21
45253;BME280;63171;50.520;30.486;2023-03-15T00:02:07;99342.88;;;5.75;54.41
45253;BME280;63171;50.520;30.486;2023-03-15T00:02:58;99339.25;;;5.78;54.45
45253;BME280;63171;50.520;30.486;2023-03-15T00:03:48;99344.16;;;5.67;54.46
45253;BME280;63171;50.520;30.486;2023-03-15T00:04:38;99334.72;;;5.48;54.22
45253;BME280;63171;50.520;30.486;2023-03-15T00:05:28;99337.16;;;5.51;54.49
45253;BME280;63171;50.520;30.486;2023-03-15T00:06:20;99293.84;;;5.52;54.49
45253;BME280;63171;50.520;30.486;2023-03-15T00:07:10;99338.13;;;5.49;54.67
45253;BME280;63171;50.520;30.486;2023-03-15T00:08:00;99331.88;;;5.53;54.91
45253;BME280;63171;50.520;30.486;2023-03-15T00:08:50;99331.47;;;5.60;54.92
45253;BME280;63171;50.520;30.486;2023-03-15T00:09:41;99346.06;;;5.46;54.83
45253;BME280;63171;50.520;30.486;2023-03-15T00:10:30;99325.84;;;5.35;55.03
45253;BME280;63171;50.520;30.486;2023-03-15T00:11:20;99338.66;;;5.38;55.15
45253;BME280;63171;50.520;30.486;2023-03-15T00:12:10;99330.63;;;5.43;55.19
45253;BME280;63171;50.520;30.486;2023-03-15T00:13:00;99347.97;;;5.42;55.27
45253;BME280;63171;50.520;30.486;2023-03-15T00:13:51;99333.41;;;5.40;55.56
45253;BME280;63171;50.520;30.486;2023-03-15T00:14:41;99342.63;;;5.45;55.80
45253;BME280;63171;50.520;30.486;2023-03-15T00:15:31;99331.56;;;5.42;55.90
45253;BME280;63171;50.520;30.486;2023-03-15T00:16:23;99343.00;;;5.55;55.75
45253;BME280;63171;50.520;30.486;2023-03-15T00:17:15;99330.03;;;5.55;55.92
45253;BME280;63171;50.520;30.486;2023-03-15T00:18:05;99334.06;;;5.60;56.06
45253;BME280;63171;50.520;30.486;2023-03-15T00:18:56;99330.56;;;5.44;56.08
45253;BME280;63171;50.520;30.486;2023-03-15T00:19:46;99323.94;;;5.39;56.26
45253;BME280;63171;50.520;30.486;2023-03-15T00:20:55;99323.84;;;5.40;56.54
45253;BME280;63171;50.520;30.486;2023-03-15T00:21:45;99324.84;;;5.38;56.29
45253;BME280;63171;50.520;30.486;2023-03-15T00:22:36;99321.50;;;5.36;56.83
45253;BME280;63171;50.520;30.486;2023-03-15T00:23:25;99332.91;;;5.31;56.60
45253;BME280;63171;50.520;30.486;2023-03-15T00:24:15;99328.88;;;5.26;56.95
45253;BME280;63171;50.520;30.486;2023-03-15T00:25:07;99301.41;;;5.22;56.56
45253;BME280;63171;50.520;30.486;2023-03-15T00:25:57;99329.56;;;5.12;57.08
45253;BME280;63171;50.520;30.486;2023-03-15T00:26:47;99317.25;;;5.16;56.90
45253;BME280;63171;50.520;30.486;2023-03-15T00:27:37;99324.81;;;5.20;57.14
45253;BME280;63171;50.520;30.486;2023-03-15T00:28:27;99325.59;;;5.22;57.13
45253;BME280;63171;50.520;30.486;2023-03-15T00:29:17;99336.94;;;5.20;57.58
45253;BME280;63171;50.520;30.486;2023-03-15T00:30:08;99326.03;;;5.13;57.59
45253;BME280;63171;50.520;30.486;2023-03-15T00:31:03;99330.41;;;5.13;57.66
45253;BME280;63171;50.520;30.486;2023-03-15T00:31:54;99324.28;;;5.14;57.72
45253;BME280;63171;50.520;30.486;2023-03-15T00:32:45;99317.25;;;5.16;58.29
45253;BME280;63171;50.520;30.486;2023-03-15T00:33:35;99320.84;;;5.13;58.21
45253;BME280;63171;50.520;30.486;2023-03-15T00:34:26;99321.94;;;5.26;58.44
45253;BME280;63171;50.520;30.486;2023-03-15T00:35:15;99320.41;;;5.40;58.43
45253;BME280;63171;50.520;30.486;2023-03-15T00:36:09;99312.78;;;5.37;58.37
45253;BME280;63171;50.520;30.486;2023-03-15T00:37:00;99323.94;;;5.39;58.71
45253;BME280;63171;50.520;30.486;2023-03-15T00:37:53;99308.72;;;5.31;58.62
45253;BME280;63171;50.520;30.486;2023-03-15T00:38:44;99318.94;;;5.17;58.49
45253;BME280;63171;50.520;30.486;2023-03-15T00:39:35;99305.13;;;5.16;58.66
45253;BME280;63171;50.520;30.486;2023-03-15T00:40:27;99326.13;;;5.12;59.09
45253;BME280;63171;50.520;30.486;2023-03-15T00:41:18;99325.38;;;5.10;59.23
45253;BME280;63171;50.520;30.486;2023-03-15T00:42:08;99310.06;;;5.03;59.15
45253;BME280;63171;50.520;30.486;2023-03-15T00:42:59;99325.72;;;5.02;59.45
45253;BME280;63171;50.520;30.486;2023-03-15T00:43:49;99326.41;;;5.05;59.53
45253;BME280;63171;50.520;30.486;2023-03-15T00:44:41;99331.75;;;5.02;59.40
45253;BME280;63171;50.520;30.486;2023-03-15T00:45:31;99311.97;;;5.00;59.89
45253;BME280;63171;50.520;30.486;2023-03-15T00:46:21;99318.00;;;5.00;60.11
45253;BME280;63171;50.520;30.486;2023-03-15T00:47:13;99322.97;;;5.05;60.10
45253;BME280;63171;50.520;30.486;2023-03-15T00:48:03;99310.16;;;5.02;59.92
45253;BME280;63171;50.520;30.486;2023-03-15T00:48:54;99324.13;;;4.99;60.43
45253;BME280;63171;50.520;30.486;2023-03-15T00:49:44;99310.16;;;5.02;60.42
45253;BME280;63171;50.520;30.486;2023-03-15T00:50:35;99311.63;;;5.08;60.61
45253;BME280;63171;50.520;30.486;2023-03-15T00:51:24;99306.47;;;5.06;60.47
45253;BME280;63171;50.520;30.486;2023-03-15T00:52:15;99308.53;;;4.99;60.69
45253;BME280;63171;50.520;30.486;2023-03-15T00:53:04;99312.38;;;5.10;61.18
45253;BME280;63171;50.520;30.486;2023-03-15T00:53:55;99300.63;;;5.20;60.99
45253;BME280;63171;50.520;30.486;2023-03-15T00:54:49;99307.19;;;5.27;61.19
45253;BME280;63171;50.520;30.486;2023-03-15T00:55:41;99313.16;;;5.29;61.45
45253;BME280;63171;50.520;30.486;2023-03-15T00:56:31;99309.34;;;5.36;61.44
45253;BME280;63171;50.520;30.486;2023-03-15T00:57:21;99319.84;;;5.33;61.71
45253;BME280;63171;50.520;30.486;2023-03-15T00:58:11;99316.66;;;5.28;61.64
45253;BME280;63171;50.520;30.486;2023-03-15T00:59:02;99307.13;;;5.28;61.72
45253;BME280;63171;50.520;30.486;2023-03-15T00:59:53;99313.31;;;5.26;61.88
45253;BME280;63171;50.520;30.486;2023-03-15T01:02:36;99316.25;;;5.18;62.02
45253;BME280;63171;50.520;30.486;2023-03-15T01:03:46;99317.81;;;5.22;62.31
45253;BME280;63171;50.520;30.486;2023-03-15T01:04:35;99311.16;;;5.17;62.30
45253;BME280;63171;50.520;30.486;2023-03-15T01:05:26;99314.06;;;5.11;62.46
45253;BME280;63171;50.520;30.486;2023-03-15T01:06:18;99317.56;;;5.10;62.46
45253;BME280;63171;50.520;30.486;2023-03-15T01:07:09;99325.97;;;5.15;62.56
45253;BME280;63171;50.520;30.486;2023-03-15T01:08:00;99322.09;;;5.23;62.89
45253;BME280;63171;50.520;30.486;2023-03-15T01:08:51;99318.56;;;5.24;62.94
45253;BME280;63171;50.520;30.486;2023-03-15T01:09:45;99317.03;;;5.20;62.92
45253;BME280;63171;50.520;30.486;2023-03-15T01:10:36;99312.06;;;5.16;63.15
45253;BME280;63171;50.520;30.486;2023-03-15T01:11:27;99314.59;;;5.17;63.44
45253;BME280;63171;50.520;30.486;2023-03-15T01:12:16;99307.13;;;5.11;63.35
45253;BME280;63171;50.520;30.486;2023-03-15T01:13:07;99315.25;;;5.03;63.24
45253;BME280;63171;50.520;30.486;2023-03-15T01:13:58;99319.25;;;5.11;63.52
45253;BME280;63171;50.520;30.486;2023-03-15T01:14:49;99315.66;;;5.13;63.84
45253;BME280;63171;50.520;30.486;2023-03-15T01:15:39;99316.41;;;5.15;63.46
45253;BME280;63171;50.520;30.486;2023-03-15T01:16:30;99299.50;;;5.08;63.82
45253;BME280;63171;50.520;30.486;2023-03-15T01:17:20;99321.94;;;5.09;63.83
45253;BME280;63171;50.520;30.486;2023-03-15T01:18:12;99308.88;;;5.11;64.16
45253;BME280;63171;50.520;30.486;2023-03-15T01:19:04;99300.25;;;5.10;64.05
45253;BME280;63171;50.520;30.486;2023-03-15T01:19:54;99316.84;;;5.06;63.88
45253;BME280;63171;50.520;30.486;2023-03-15T01:20:44;99313.59;;;5.02;63.97
45253;BME280;63171;50.520;30.486;2023-03-15T01:21:35;99319.28;;;4.92;64.18
45253;BME280;63171;50.520;30.486;2023-03-15T01:22:25;99323.63;;;4.91;64.47
45253;BME280;63171;50.520;30.486;2023-03-15T01:23:16;99303.88;;;4.89;64.66
45253;BME280;63171;50.520;30.486;2023-03-15T01:24:10;99318.19;;;4.79;64.74
45253;BME280;63171;50.520;30.486;2023-03-15T01:25:02;99304.59;;;4.73;64.62
45253;BME280;63171;50.520;30.486;2023-03-15T01:25:52;99314.56;;;4.64;64.60
45253;BME280;63171;50.520;30.486;2023-03-15T01:26:42;99314.38;;;4.68;65.00
45253;BME280;63171;50.520;30.486;2023-03-15T01:27:33;99319.91;;;4.61;65.22
45253;BME280;63171;50.520;30.486;2023-03-15T01:28:24;99313.03;;;4.60;65.53
45253;BME280;63171;50.520;30.486;2023-03-15T01:29:15;99320.66;;;4.63;65.30
45253;BME280;63171;50.520;30.486;2023-03-15T01:30:07;99315.47;;;4.63;65.58
45253;BME280;63171;50.520;30.486;2023-03-15T01:30:59;99306.94;;;4.61;65.82
45253;BME280;63171;50.520;30.486;2023-03-15T01:31:49;99319.53;;;4.50;65.75
45253;BME280;63171;50.520;30.486;2023-03-15T01:32:40;99315.19;;;4.50;65.63
45253;BME280;63171;50.520;30.486;2023-03-15T01:33:31;99302.25;;;4.50;65.93
45253;BME280;63171;50.520;30.486;2023-03-15T01:34:21;99318.84;;;4.46;66.11
45253;BME280;63171;50.520;30.486;2023-03-15T01:35:12;99310.31;;;4.44;66.13
45253;BME280;63171;50.520;30.486;2023-03-15T01:36:04;99322.28;;;4.47;66.38
45253;BME280;63171;50.520;30.486;2023-03-15T01:36:56;99323.53;;;4.38;66.32
45253;BME280;63171;50.520;30.486;2023-03-15T01:37:51;99327.97;;;4.36;66.77
45253;BME280;63171;50.520;30.486;2023-03-15T01:38:42;99326.19;;;4.36;66.97
45253;BME280;63171;50.520;30.486;2023-03-15T01:39:33;99319.97;;;4.40;67.00
45253;BME280;63171;50.520;30.486;2023-03-15T01:40:24;99311.50;;;4.37;67.02
45253;BME280;63171;50.520;30.486;2023-03-15T01:41:32;99314.78;;;4.40;67.37
45253;BME280;63171;50.520;30.486;2023-03-15T01:42:23;99314.84;;;4.39;67.51
45253;BME280;63171;50.520;30.486;2023-03-15T01:43:15;99310.66;;;4.36;67.82
45253;BME280;63171;50.520;30.486;2023-03-15T01:44:10;99312.25;;;4.39;67.74
45253;BME280;63171;50.520;30.486;2023-03-15T01:45:01;99309.88;;;4.34;68.01
45253;BME280;63171;50.520;30.486;2023-03-15T01:46:04;99329.72;;;4.35;68.29
45253;BME280;63171;50.520;30.486;2023-03-15T01:46:59;99316.13;;;4.30;68.44
45253;BME280;63171;50.520;30.486;2023-03-15T01:47:49;99298.91;;;4.29;68.28
45253;BME280;63171;50.520;30.486;2023-03-15T01:48:46;99311.94;;;4.28;68.37
45253;BME280;63171;50.520;30.486;2023-03-15T01:49:43;99316.13;;;4.30;68.70
45253;BME280;63171;50.520;30.486;2023-03-15T01:50:35;99313.31;;;4.35;68.86
45253;BME280;63171;50.520;30.486;2023-03-15T01:51:29;99314.78;;;4.40;69.28
45253;BME280;63171;50.520;30.486;2023-03-15T01:52:24;99307.22;;;4.36;69.28
45253;BME280;63171;50.520;30.486;2023-03-15T01:53:25;99304.78;;;4.33;69.60
45253;BME280;63171;50.520;30.486;2023-03-15T01:54:20;99324.53;;;4.35;69.60
45253;BME280;63171;50.520;30.486;2023-03-15T01:55:13;99313.38;;;4.33;69.65
45253;BME280;63171;50.520;30.486;2023-03-15T01:56:19;99313.31;;;4.35;69.71
45253;BME280;63171;50.520;30.486;2023-03-15T01:57:12;99309.13;;;4.32;70.12
45253;BME280;63171;50.520;30.486;2023-03-15T01:58:06;99314.53;;;4.28;69.90
45253;BME280;63171;50.520;30.486;2023-03-15T01:59:02;99299.84;;;4.27;70.09
45253;BME280;63171;50.520;30.486;2023-03-15T01:59:57;99320.59;;;4.27;70.50
45253;BME280;63171;50.520;30.486;2023-03-15T02:00:50;99323.97;;;4.29;70.42
45253;BME280;63171;50.520;30.486;2023-03-15T02:01:42;99340.47;;;4.26;70.59
45253;BME280;63171;50.520;30.486;2023-03-15T02:02:35;99328.56;;;4.22;70.46
45253;BME280;63171;50.520;30.486;2023-03-15T02:03:29;99321.66;;;4.23;70.86
45253;BME280;63171;50.520;30.486;2023-03-15T02:04:26;99325.91;;;4.24;71.11
45253;BME280;63171;50.520;30.486;2023-03-15T02:05:22;99318.97;;;4.24;71.27
45253;BME280;63171;50.520;30.486;2023-03-15T02:06:16;99328.66;;;4.21;71.04
45253;BME280;63171;50.520;30.486;2023-03-15T02:07:16;99330.19;;;4.25;71.68
45253;BME280;63171;50.520;30.486;2023-03-15T02:08:07;99333.53;;;4.27;71.51
45253;BME280;63171;50.520;30.486;2023-03-15T02:09:04;99326.13;;;4.19;71.45
45253;BME280;63171;50.520;30.486;2023-03-15T02:10:02;99338.19;;;4.20;71.61
45253;BME280;63171;50.520;30.486;2023-03-15T02:10:59;99337.88;;;4.07;71.57
45253;BME280;63171;50.520;30.486;2023-03-15T02:11:50;99335.16;;;4.10;71.95
45253;BME280;63171;50.520;30.486;2023-03-15T02:12:45;99330.69;;;4.14;72.13
45253;BME280;63171;50.520;30.486;2023-03-15T02:13:36;99339.31;;;4.14;72.48
45253;BME280;63171;50.520;30.486;2023-03-15T02:14:31;99323.03;;;4.11;72.30
45253;BME280;63171;50.520;30.486;2023-03-15T02:15:23;99321.50;;;4.07;72.38
45253;BME280;63171;50.520;30.486;2023-03-15T02:16:14;99330.72;;;4.12;72.46
45253;BME280;63171;50.520;30.486;2023-03-15T02:17:09;99328.09;;;4.14;72.83
45253;BME280;63171;50.520;30.486;2023-03-15T02:18:00;99330.69;;;4.14;73.05
45253;BME280;63171;50.520;30.486;2023-03-15T02:18:50;99320.44;;;4.11;73.01
45253;BME280;63171;50.520;30.486;2023-03-15T02:19:48;99333.31;;;4.12;72.98
45253;BME280;63171;50.520;30.486;2023-03-15T02:20:47;99330.94;;;4.08;73.38
45253;BME280;63171;50.520;30.486;2023-03-15T02:21:45;99315.47;;;4.06;73.43
45253;BME280;63171;50.520;30.486;2023-03-15T02:22:42;99325.97;;;4.03;73.23
45253;BME280;63171;50.520;30.486;2023-03-15T02:23:37;99324.09;;;4.07;73.90
45253;BME280;63171;50.520;30.486;2023-03-15T02:24:33;99325.38;;;4.17;73.96
45253;BME280;63171;50.520;30.486;2023-03-15T02:25:35;99316.09;;;4.11;74.10
45253;BME280;63171;50.520;30.486;2023-03-15T02:26:32;99306.84;;;4.06;74.00
45253;BME280;63171;50.520;30.486;2023-03-15T02:27:28;99309.38;;;4.07;74.09
45253;BME280;63171;50.520;30.486;2023-03-15T02:28:19;99315.41;;;4.08;74.42
45253;BME280;63171;50.520;30.486;2023-03-15T02:29:10;99306.09;;;4.04;74.18
45253;BME280;63171;50.520;30.486;2023-03-15T02:30:01;99320.88;;;4.02;74.42
45253;BME280;63171;50.520;30.486;2023-03-15T02:30:52;99315.03;;;3.97;74.53
45253;BME280;63171;50.520;30.486;2023-03-15T02:31:43;99320.97;;;3.99;74.39
45253;BME280;63171;50.520;30.486;2023-03-15T02:32:33;99313.28;;;3.97;74.74
45253;BME280;63171;50.520;30.486;2023-03-15T02:33:25;99296.63;;;4.03;74.88
45253;BME280;63171;50.520;30.486;2023-03-15T02:34:17;99307.63;;;4.08;75.10
45253;BME280;63171;50.520;30.486;2023-03-15T02:35:07;99311.44;;;3.99;75.10
45253;BME280;63171;50.520;30.486;2023-03-15T02:36:08;99309.44;;;4.06;75.37
45253;BME280;63171;50.520;30.486;2023-03-15T02:36:59;99293.00;;;4.07;75.49
45253;BME280;63171;50.520;30.486;2023-03-15T02:37:50;99319.03;;;4.04;75.32
45253;BME280;63171;50.520;30.486;2023-03-15T02:38:40;99316.38;;;4.05;75.45
45253;BME280;63171;50.520;30.486;2023-03-15T02:39:30;99306.94;;;4.04;75.59
45253;BME280;63171;50.520;30.486;2023-03-15T02:40:22;99308.59;;;4.05;75.62
45253;BME280;63171;50.520;30.486;2023-03-15T02:41:17;99312.81;;;4.08;75.84
45253;BME280;63171;50.520;30.486;2023-03-15T02:42:08;99321.22;;;4.13;76.21
45253;BME280;63171;50.520;30.486;2023-03-15T02:43:04;99314.50;;;4.09;75.98
45253;BME280;63171;50.520;30.486;2023-03-15T02:43:59;99316.31;;;4.07;76.11
45253;BME280;63171;50.520;30.486;2023-03-15T02:44:53;99315.97;;;4.14;76.55
45253;BME280;63171;50.520;30.486;2023-03-15T02:45:44;99309.59;;;4.22;76.69
45253;BME280;63171;50.520;30.486;2023-03-15T02:46:36;99303.44;;;4.24;76.75
45253;BME280;63171;50.520;30.486;2023-03-15T02:47:29;99308.19;;;4.33;76.95
45253;BME280;63171;50.520;30.486;2023-03-15T02:48:22;99310.38;;;4.24;76.71
45253;BME280;63171;50.520;30.486;2023-03-15T02:49:12;99313.78;;;4.24;76.90
45253;BME280;63171;50.520;30.486;2023-03-15T02:50:05;99316.31;;;4.26;76.97
45253;BME280;63171;50.520;30.486;2023-03-15T02:50:56;99312.81;;;4.27;77.19
45253;BME280;63171;50.520;30.486;2023-03-15T02:51:47;99316.25;;;4.27;77.08
45253;BME280;63171;50.520;30.486;2023-03-15T02:52:37;99313.78;;;4.24;77.19
45253;BME280;63171;50.520;30.486;2023-03-15T02:53:28;99303.72;;;4.18;77.03
45253;BME280;63171;50.520;30.486;2023-03-15T02:54:18;99308.13;;;4.16;77.38
45253;BME280;63171;50.520;30.486;2023-03-15T02:55:09;99282.56;;;4.08;77.26
45253;BME280;63171;50.520;30.486;2023-03-15T02:55:59;99294.88;;;4.03;77.29
45253;BME280;63171;50.520;30.486;2023-03-15T02:56:49;99312.88;;;4.06;77.64
45253;BME280;63171;50.520;30.486;2023-03-15T02:57:39;99314.41;;;4.10;77.66
45253;BME280;63171;50.520;30.486;2023-03-15T02:58:32;99305.81;;;4.10;77.58
45253;BME280;63171;50.520;30.486;2023-03-15T02:59:24;99308.25;;;4.13;77.80
45253;BME280;63171;50.520;30.486;2023-03-15T03:00:15;99302.28;;;4.11;77.85
45253;BME280;63171;50.520;30.486;2023-03-15T03:01:06;99293.75;;;4.09;77.76
45253;BME280;63171;50.520;30.486;2023-03-15T03:01:58;99305.81;;;4.10;77.59
45253;BME280;63171;50.520;30.486;2023-03-15T03:02:48;99305.31;;;4.21;78.16
45253;BME280;63171;50.520;30.486;2023-03-15T03:03:39;99301.53;;;4.09;77.93
45253;BME280;63171;50.520;30.486;2023-03-15T03:04:28;99289.81;;;4.00;77.84
45253;BME280;63171;50.520;30.486;2023-03-15T03:05:19;99302.00;;;3.98;78.20
45253;BME280;63171;50.520;30.486;2023-03-15T03:06:14;99288.78;;;4.04;78.14
45253;BME280;63171;50.520;30.486;2023-03-15T03:07:06;99299.00;;;4.07;78.38
45253;BME280;63171;50.520;30.486;2023-03-15T03:08:05;99293.97;;;4.04;78.32
45253;BME280;63171;50.520;30.486;2023-03-15T03:08:57;99289.81;;;4.00;78.34
45253;BME280;63171;50.520;30.486;2023-03-15T03:09:47;99292.38;;;4.02;78.71
45253;BME280;63171;50.520;30.486;2023-03-15T03:10:39;99288.56;;;4.09;78.86
45253;BME280;63171;50.520;30.486;2023-03-15T03:11:29;99291.38;;;4.04;78.72
45253;BME280;63171;50.520;30.486;2023-03-15T03:12:21;99292.66;;;4.14;79.10
45253;BME280;63171;50.520;30.486;2023-03-15T03:13:10;99298.69;;;4.15;79.30
45253;BME280;63171;50.520;30.486;2023-03-15T03:14:04;99291.38;;;4.23;79.09
45253;BME280;63171;50.520;30.486;2023-03-15T03:14:54;99301.06;;;4.20;79.39
45253;BME280;63171;50.520;30.486;2023-03-15T03:15:48;99295.66;;;4.24;79.19
45253;BME280;63171;50.520;30.486;2023-03-15T03:16:37;99287.25;;;4.19;79.10
45253;BME280;63171;50.520;30.486;2023-03-15T03:17:28;99293.50;;;4.15;79.28
45253;BME280;63171;50.520;30.486;2023-03-15T03:18:18;99298.25;;;4.05;79.42
45253;BME280;63171;50.520;30.486;2023-03-15T03:19:10;99292.69;;;4.13;79.49
45253;BME280;63171;50.520;30.486;2023-03-15T03:20:01;99295.88;;;4.20;79.73
45253;BME280;63171;50.520;30.486;2023-03-15T03:20:58;99289.16;;;4.15;79.37
45253;BME280;63171;50.520;30.486;2023-03-15T03:21:48;99291.16;;;4.09;79.46
45253;BME280;63171;50.520;30.486;2023-03-15T03:22:41;99294.75;;;4.06;79.79
45253;BME280;63171;50.520;30.486;2023-03-15T03:23:34;99289.72;;;4.03;79.83
45253;BME280;63171;50.520;30.486;2023-03-15T03:24:25;99292.28;;;4.03;79.72
45253;BME280;63171;50.520;30.486;2023-03-15T03:25:17;99299.78;;;4.09;80.14
45253;BME280;63171;50.520;30.486;2023-03-15T03:26:12;99294.16;;;4.00;79.67
45253;BME280;63171;50.520;30.486;2023-03-15T03:27:05;99296.44;;;3.87;79.63
45253;BME280;63171;50.520;30.486;2023-03-15T03:27:59;99280.34;;;3.80;79.86
45253;BME280;63171;50.520;30.486;2023-03-15T03:28:54;99293.16;;;3.83;80.07
45253;BME280;63171;50.520;30.486;2023-03-15T03:29:48;99284.63;;;3.81;79.96
45253;BME280;63171;50.520;30.486;2023-03-15T03:30:39;99277.13;;;3.75;80.30
45253;BME280;63171;50.520;30.486;2023-03-15T03:31:30;99289.03;;;3.79;80.25
45253;BME280;63171;50.520;30.486;2023-03-15T03:32:24;99290.25;;;3.91;80.56
45253;BME280;63171;50.520;30.486;2023-03-15T03:33:15;99288.88;;;3.82;80.52
45253;BME280;63171;50.520;30.486;2023-03-15T03:34:05;99290.25;;;3.91;80.51
45253;BME280;63171;50.520;30.486;2023-03-15T03:34:57;99289.81;;;4.00;80.85
45253;BME280;63171;50.520;30.486;2023-03-15T03:35:47;99292.63;;;3.96;81.08
45253;BME280;63171;50.520;30.486;2023-03-15T03:36:39;99300.53;;;3.93;80.68
45253;BME280;63171;50.520;30.486;2023-03-15T03:37:29;99294.66;;;3.89;80.70
45253;BME280;63171;50.520;30.486;2023-03-15T03:38:24;99305.47;;;3.78;80.98
45253;BME280;63171;50.520;30.486;2023-03-15T03:39:18;99296.34;;;3.70;80.77
45253;BME280;63171;50.520;30.486;2023-03-15T03:40:10;99294.91;;;3.83;81.22
45253;BME280;63171;50.520;30.486;2023-03-15T03:41:01;99304.50;;;3.81;81.32
45253;BME280;63171;50.520;30.486;2023-03-15T03:41:54;99295.97;;;3.79;81.46
45253;BME280;63171;50.520;30.486;2023-03-15T03:42:44;99304.28;;;3.85;81.46
45253;BME280;63171;50.520;30.486;2023-03-15T03:43:35;99294.97;;;3.81;81.87
45253;BME280;63171;50.520;30.486;2023-03-15T03:44:25;99308.44;;;3.90;81.87
45253;BME280;63171;50.520;30.486;2023-03-15T03:45:17;99303.22;;;3.71;81.72
45253;BME280;63171;50.520;30.486;2023-03-15T03:46:09;99304.81;;;3.73;81.86
45253;BME280;63171;50.520;30.486;2023-03-15T03:47:05;99308.78;;;3.82;82.01
45253;BME280;63171;50.520;30.486;2023-03-15T03:47:55;99304.03;;;3.92;82.52
45253;BME280;63171;50.520;30.486;2023-03-15T03:48:46;99308.69;;;3.83;81.88
45253;BME280;63171;50.520;30.486;2023-03-15T03:49:36;99313.44;;;3.74;81.85
45253;BME280;63171;50.520;30.486;2023-03-15T03:50:27;99304.81;;;3.73;81.89
45253;BME280;63171;50.520;30.486;2023-03-15T03:51:17;99314.16;;;3.77;82.24
45253;BME280;63171;50.520;30.486;2023-03-15T03:52:07;99305.47;;;3.78;82.65
45253;BME280;63171;50.520;30.486;2023-03-15T03:52:58;99312.66;;;3.72;82.57
45253;BME280;63171;50.520;30.486;2023-03-15T03:53:53;99311.56;;;3.77;82.48
45253;BME280;63171;50.520;30.486;2023-03-15T03:54:44;99308.53;;;3.88;82.78
45253;BME280;63171;50.520;30.486;2023-03-15T03:55:33;99311.22;;;3.85;82.82
45253;BME280;63171;50.520;30.486;2023-03-15T03:56:24;99305.28;;;3.83;82.97
45253;BME280;63171;50.520;30.486;2023-03-15T03:57:14;99304.44;;;3.82;83.18
45253;BME280;63171;50.520;30.486;2023-03-15T03:58:04;99310.19;;;3.89;82.77
45253;BME280;63171;50.520;30.486;2023-03-15T03:59:05;99302.28;;;3.92;83.25
45253;BME280;63171;50.520;30.486;2023-03-15T04:00:10;99311.03;;;3.90;83.09
45253;BME280;63171;50.520;30.486;2023-03-15T04:01:06;99303.28;;;3.69;82.84
45253;BME280;63171;50.520;30.486;2023-03-15T04:01:58;99309.22;;;3.71;83.13
45253;BME280;63171;50.520;30.486;2023-03-15T04:02:48;99308.16;;;3.77;83.37
45253;BME280;63171;50.520;30.486;2023-03-15T04:03:43;99316.22;;;3.69;83.40
45253;BME280;63171;50.520;30.486;2023-03-15T04:04:39;99312.22;;;3.62;83.52
45253;BME280;63171;50.520;30.486;2023-03-15T04:05:33;99309.56;;;3.43;83.41
45253;BME280;63171;50.520;30.486;2023-03-15T04:06:24;99310.06;;;3.31;82.93
45253;BME280;63171;50.520;30.486;2023-03-15T04:07:15;99312.00;;;3.46;83.60
45253;BME280;63171;50.520;30.486;2023-03-15T04:08:06;99309.31;;;3.49;83.88
45253;BME280;63171;50.520;30.486;2023-03-15T04:09:00;99312.16;;;3.64;83.79
45253;BME280;63171;50.520;30.486;2023-03-15T04:09:59;99304.97;;;3.70;84.00
45253;BME280;63171;50.520;30.486;2023-03-15T04:10:51;99308.31;;;3.72;84.06
45253;BME280;63171;50.520;30.486;2023-03-15T04:11:43;99308.53;;;3.68;84.02
45253;BME280;63171;50.520;30.486;2023-03-15T04:12:33;99313.50;;;3.72;84.29
45253;BME280;63171;50.520;30.486;2023-03-15T04:13:24;99312.59;;;3.73;84.51
45253;BME280;63171;50.520;30.486;2023-03-15T04:14:14;99299.00;;;3.68;84.07
45253;BME280;63171;50.520;30.486;2023-03-15T04:15:08;99302.97;;;3.56;84.18
45253;BME280;63171;50.520;30.486;2023-03-15T04:15:58;99300.59;;;3.52;84.44
45253;BME280;63171;50.520;30.486;2023-03-15T04:16:56;99302.13;;;3.56;84.36
45253;BME280;63171;50.520;30.486;2023-03-15T04:17:46;99304.47;;;3.62;84.61
45253;BME280;63171;50.520;30.486;2023-03-15T04:18:36;99304.00;;;3.52;84.68
45253;BME280;63171;50.520;30.486;2023-03-15T04:19:28;99310.22;;;3.69;84.84
45253;BME280;63171;50.520;30.486;2023-03-15T04:20:20;99305.63;;;3.75;84.84
45253;BME280;63171;50.520;30.486;2023-03-15T04:21:11;99305.09;;;3.88;85.03
45253;BME280;63171;50.520;30.486;2023-03-15T04:22:04;99304.19;;;3.89;85.15
45253;BME280;63171;50.520;30.486;2023-03-15T04:23:15;99307.31;;;3.76;85.00
45253;BME280;63171;50.520;30.486;2023-03-15T04:24:46;99301.78;;;3.84;85.26
45253;BME280;63171;50.520;30.486;2023-03-15T04:25:58;99306.03;;;3.85;85.23
45253;BME280;63171;50.520;30.486;2023-03-15T04:27:02;99299.41;;;3.98;85.82
45253;BME280;63171;50.520;30.486;2023-03-15T04:28:25;99307.13;;;4.00;85.51
45253;BME280;63171;50.520;30.486;2023-03-15T04:29:22;99302.59;;;4.05;85.57
45253;BME280;63171;50.520;30.486;2023-03-15T04:30:32;99299.75;;;4.30;86.08
45253;BME280;63171;50.520;30.486;2023-03-15T04:31:40;99296.28;;;4.48;86.19
45253;BME280;63171;50.520;30.486;2023-03-15T04:32:44;99299.06;;;4.62;86.24
45253;BME280;63171;50.520;30.486;2023-03-15T04:33:42;99298.81;;;4.68;86.28
45253;BME280;63171;50.520;30.486;2023-03-15T04:34:54;99296.22;;;4.68;86.31
45253;BME280;63171;50.520;30.486;2023-03-15T04:36:07;99304.81;;;4.50;86.08
45253;BME280;63171;50.520;30.486;2023-03-15T04:37:27;99307.41;;;4.69;86.35
45253;BME280;63171;50.520;30.486;2023-03-15T04:38:36;99308.94;;;4.73;86.52
45253;BME280;63171;50.520;30.486;2023-03-15T04:39:43;99310.22;;;4.64;85.98
45253;BME280;63171;50.520;30.486;2023-03-15T04:40:45;99313.03;;;4.60;85.84
45253;BME280;63171;50.520;30.486;2023-03-15T04:41:59;99311.53;;;4.73;85.94
45253;BME280;63171;50.520;30.486;2023-03-15T04:43:07;99320.28;;;4.89;86.15
45253;BME280;63171;50.520;30.486;2023-03-15T04:44:05;99309.13;;;4.87;86.10